Willisville, Indiana
Current Conditions -  °F | °C
As of 7:55 AM on Saturday 25 Oct 2014 (Local Time) from KDCY Reporting Station
Overcast Overcast  
Wind Chill: 59°   Ceiling: 4000
Heat Index: 59°   Visibility: 10mi
Dew Point: 56°   Wind: 6mph
Humidity: 89%   Direction: 230°SW
Pressure: 30"   Gusts: NA
Location:  38.4723°N, 87.3105°W
Report Text: KDCY 251255Z AUTO 23005KT 10SM BKN040 OVC046 15/13 A3000 RMK AO2 T01490131
Loading
Personal Weather Stations






























Interactive Weather Map
Tropical Storm Tracking
New forecast layout! Learn more

10-Day Weather Forecast

Advertisements
Track Severe Weather on mobile